Portada
METAR-TAF:

METAR-TAF

Aeroports :

Nimes, França

latitud: 43-45N, longitud: 004-25E, altitud: 94 m

Observació

L'informe es va fer fa 17 minuts, a les 17:00 UTC
Vent 2 kt del Nord/Nord-Oest
Temperatura 17°C
Humitat 88%
Pressió 1018 hPa
Visibilitat 10 km o més
sense núvols per sota de 1500 mi sense presència de cumulonimbus.

METAR: LFTW 161700Z AUTO 33002KT CAVOK 17/15 Q1018 NOSIG

Hora: 19:17 (17:17 UTC)

Pronòstic

L'informe es va fer fa 3 hores i 17 minuts, a les 14:00 UTC
Pronòstic vàlid del 16 a les 15 UTC al 17 a les 15 UTC
Vent 6 kt del Nord/Nord-Est
Visibilitat 10 km o més
Cel ennuvolat a una alçada de 4500 ft
Evolucionant progressivament
l' 17 a les 12 UTC al 17 a les 14 UTC
Vent 10 kt del Oest/Nord-Oest

TAF: LFTW 161400Z 1615/1715 02006KT 9999 BKN045 BECMG 1712/1714 30010KT

Observacions i pronòstics meteorològics de més de 4000 aeroports (METAR i TAF).

Les estacions disponibles són els punts grocs i vermells al mapa.

Posi el ratolí al punt desitjat per veure el nom de l'estació.

Feu clic per veure les observacions i els pronòstics meteorològics.

Per canviar el mapa: feu clic els botons verds amb una creu de color negre per apropar; al botó verd amb un guió per allunyar la imatge; o en les fletxes verdes per a mapes adjacents.


METAR-TAF: